De Soto, IA (50069)

12:07 AM CDT on August 28, 2016 (GMT -0500)
South of De Soto | | Change Station

Elev 1035 ft 41.47 °N, 94.03 °W | Updated 1 second ago

Scattered Clouds
Scattered Clouds
66.2 °F
Feels Like 66.2 °F
N
0.0
Wind Variable Wind from SE
Gusts 0.0 mph

Today
High -- | Low -- °F
--% Chance of Precip.
Yesterday
High -- | Low -- °F
Precip. -- in
Pressure 30.06 in
Visibility 10.0 miles
Clouds Scattered Clouds 25000 ft
Dew Point 62 °F
Humidity 87%
Rainfall 0.00 in
Snow Depth Not available.
6:38 AM 7:54 PM
Waning Crescent, 18% visible
METAR KDSM 280454Z COR 00000KT 10SM SCT250 22/21 A3008 RMK AO2 SLP178 T02220206
Pressure 30.06 in
Visibility 10.0 miles
Clouds Scattered Clouds 25000 ft
Dew Point 62 °F
Humidity 87%
Rainfall 0.00 in
Snow Depth Not available.
6:38 AM 7:54 PM
Waning Crescent, 18% visible
METAR KDSM 280454Z COR 00000KT 10SM SCT250 22/21 A3008 RMK AO2 SLP178 T02220206

10-Day Weather Forecast

Almanac

Astronomy

Aug. 28, 2016 Rise Set
Actual Time
Civil Twilight
Nautical Twilight
Astronomical Twilight
Moon
Length of Visible Light
Length of Day
Tomorrow will be .
, % of the Moon is Illuminated

Today's Extremes

State Highs State Lows

Community

WunderPhotos

Upload Photos

1,935,530 photos uploaded!

WunderBlog® & News

Nearby

Air Quality

  Air Quality AQ Index Pollutant
Not available.

Snow Depth

Station Depth Elevation

Earthquake Activity

City Distance Mag. Time & Date
Minimum magnitude displayed is 2.5.

Coastal Water Temperatures

Place Temperature

Stations

Nearby Weather Stations

Station Location Temp. Windchill Dew Point Humidity Wind Precip. Elev Updated Type
                   

Watches & Warnings

There are currently no watches in effect.